createdAt,value
2018-10-06T00:02:22.491Z,8.82
2018-10-06T00:05:27.453Z,8.75
2018-10-06T00:08:32.431Z,8.77
2018-10-06T00:11:38.226Z,8.75
2018-10-06T00:14:43.213Z,8.70
2018-10-06T00:17:49.831Z,8.67
2018-10-06T00:20:56.337Z,8.68
2018-10-06T00:24:01.511Z,8.62
2018-10-06T00:27:06.765Z,8.61
2018-10-06T00:30:12.772Z,8.61
2018-10-06T00:33:18.568Z,8.59
2018-10-06T00:36:24.387Z,8.59
2018-10-06T00:39:30.574Z,8.59
2018-10-06T00:42:35.568Z,8.53
2018-10-06T00:45:40.794Z,8.56
2018-10-06T00:48:46.437Z,8.51
2018-10-06T00:51:51.515Z,8.53
2018-10-06T00:54:58.019Z,8.52
2018-10-06T00:58:03.877Z,8.48
2018-10-06T01:01:09.076Z,8.48
2018-10-06T01:04:14.669Z,8.41
2018-10-06T01:07:20.530Z,8.37
2018-10-06T01:10:26.941Z,8.34
2018-10-06T01:13:31.980Z,8.34
2018-10-06T01:16:36.998Z,8.31
2018-10-06T01:19:42.241Z,8.30
2018-10-06T01:22:48.604Z,8.30
2018-10-06T01:25:53.565Z,8.32
2018-10-06T01:29:01.278Z,8.32
2018-10-06T01:32:19.833Z,8.33
2018-10-06T01:35:33.171Z,8.31
2018-10-06T01:38:44.728Z,8.28
2018-10-06T01:41:49.774Z,8.25
2018-10-06T01:44:56.489Z,8.23
2018-10-06T01:48:02.342Z,8.23
2018-10-06T01:51:08.300Z,8.21
2018-10-06T01:54:14.632Z,8.23
2018-10-06T01:57:21.166Z,8.23
2018-10-06T02:00:26.917Z,8.16
2018-10-06T02:03:33.061Z,8.13
2018-10-06T02:06:38.804Z,8.13
2018-10-06T02:09:44.602Z,8.12
2018-10-06T02:12:50.357Z,8.09
2018-10-06T02:15:55.322Z,8.05
2018-10-06T02:19:00.371Z,8.01
2018-10-06T02:22:05.519Z,7.98
2018-10-06T02:25:14.988Z,7.98
2018-10-06T02:28:21.786Z,7.96
2018-10-06T02:31:28.886Z,7.94
2018-10-06T02:34:34.685Z,7.95
2018-10-06T02:37:40.903Z,7.94
2018-10-06T02:40:45.897Z,7.95
2018-10-06T02:43:51.761Z,7.95
2018-10-06T02:47:00.379Z,7.95
2018-10-06T02:50:07.647Z,7.90
2018-10-06T02:53:12.984Z,7.88
2018-10-06T02:56:19.982Z,7.84
2018-10-06T02:59:25.951Z,7.86
2018-10-06T03:02:34.882Z,7.83
2018-10-06T03:05:40.727Z,7.78
2018-10-06T03:08:47.217Z,7.77
2018-10-06T03:11:52.211Z,7.79
2018-10-06T03:14:59.943Z,7.78
2018-10-06T03:18:06.581Z,7.68
2018-10-06T03:21:13.641Z,7.67
2018-10-06T03:24:19.898Z,7.67
2018-10-06T03:27:25.520Z,7.67
2018-10-06T03:30:31.779Z,7.70
2018-10-06T03:33:38.429Z,7.72
2018-10-06T03:36:45.460Z,7.68
2018-10-06T03:39:53.984Z,7.68
2018-10-06T03:42:59.311Z,7.71
2018-10-06T03:46:07.078Z,7.72
2018-10-06T03:49:15.466Z,7.69
2018-10-06T03:52:29.163Z,7.66
2018-10-06T03:55:36.419Z,7.67
2018-10-06T03:58:44.957Z,7.67
2018-10-06T04:01:51.955Z,7.63
2018-10-06T04:05:00.424Z,7.64
2018-10-06T04:08:09.230Z,7.61
2018-10-06T04:11:16.421Z,7.59
2018-10-06T04:14:23.335Z,7.60
2018-10-06T04:17:32.104Z,7.58
2018-10-06T04:20:37.101Z,7.56
2018-10-06T04:23:45.306Z,7.56
2018-10-06T04:26:53.339Z,7.57
2018-10-06T04:29:58.329Z,7.53
2018-10-06T04:33:06.122Z,7.55
2018-10-06T04:36:11.230Z,7.55
2018-10-06T04:39:17.161Z,7.55
2018-10-06T04:42:22.902Z,7.55
2018-10-06T04:45:27.902Z,7.53
2018-10-06T04:48:33.538Z,7.51
2018-10-06T04:51:38.603Z,7.51
2018-10-06T04:54:44.547Z,7.50
2018-10-06T04:57:49.526Z,7.42
2018-10-06T05:00:55.334Z,7.38
2018-10-06T05:04:02.183Z,7.38
2018-10-06T05:07:07.921Z,7.40
2018-10-06T05:10:14.160Z,7.41
2018-10-06T05:15:04.440Z,7.27
2018-10-06T05:18:10.217Z,7.29
2018-10-06T05:21:16.178Z,7.31
2018-10-06T05:24:21.833Z,7.30
2018-10-06T05:27:27.501Z,7.37
2018-10-06T05:30:33.355Z,7.36
2018-10-06T05:33:39.198Z,7.35
2018-10-06T05:36:54.164Z,7.40
2018-10-06T05:39:59.139Z,7.43
2018-10-06T05:43:05.104Z,7.48
2018-10-06T05:46:10.909Z,7.51
2018-10-06T05:49:16.086Z,7.50
2018-10-06T05:52:21.099Z,7.51
2018-10-06T05:55:26.233Z,7.52
2018-10-06T05:58:32.513Z,7.58
2018-10-06T06:01:38.490Z,7.58
2018-10-06T06:04:43.646Z,7.62
2018-10-06T06:07:48.626Z,7.63
2018-10-06T06:10:53.666Z,7.65
2018-10-06T06:14:05.695Z,7.69
2018-10-06T06:17:15.445Z,7.71
2018-10-06T06:20:23.237Z,7.73
2018-10-06T06:23:31.049Z,7.77
2018-10-06T06:26:41.483Z,7.75
2018-10-06T06:29:53.824Z,7.78
2018-10-06T06:33:07.715Z,7.80
2018-10-06T06:36:16.787Z,7.91
2018-10-06T06:39:23.206Z,7.98
2018-10-06T06:42:31.213Z,8.03
2018-10-06T06:45:41.135Z,8.09
2018-10-06T06:48:53.439Z,8.13
2018-10-06T06:52:02.362Z,8.07
2018-10-06T06:55:10.781Z,8.17
2018-10-06T06:58:20.218Z,8.27
2018-10-06T07:01:32.057Z,8.41
2018-10-06T07:04:40.081Z,8.62
2018-10-06T07:07:53.213Z,8.72
2018-10-06T07:11:00.118Z,8.93
2018-10-06T07:14:06.340Z,9.13
2018-10-06T07:17:12.579Z,9.31
2018-10-06T07:20:21.808Z,9.42
2018-10-06T07:23:30.580Z,9.58
2018-10-06T07:26:36.447Z,9.60
2018-10-06T07:29:41.465Z,9.67
2018-10-06T07:32:46.509Z,9.87
2018-10-06T07:35:52.405Z,10.01
2018-10-06T07:38:58.263Z,10.29
2018-10-06T07:42:04.126Z,10.64
2018-10-06T07:45:10.252Z,10.96
2018-10-06T07:48:16.014Z,11.35
2018-10-06T07:51:21.886Z,11.55
2018-10-06T07:54:26.925Z,11.84
2018-10-06T07:57:32.767Z,12.17
2018-10-06T08:00:38.381Z,12.51
2018-10-06T08:03:45.692Z,12.83
2018-10-06T08:06:52.721Z,13.17
2018-10-06T08:09:59.924Z,13.39
2018-10-06T08:13:07.115Z,13.53
2018-10-06T08:16:14.852Z,13.74
2018-10-06T08:19:23.314Z,13.94
2018-10-06T08:22:29.791Z,14.23
2018-10-06T08:25:35.718Z,14.40
2018-10-06T08:28:41.643Z,14.56
2018-10-06T08:31:48.294Z,14.66
2018-10-06T08:34:57.281Z,14.90
2018-10-06T08:38:07.885Z,14.93
2018-10-06T08:41:22.904Z,15.24
2018-10-06T08:44:35.155Z,15.85
2018-10-06T08:47:42.269Z,16.29
2018-10-06T08:54:28.943Z,16.93
2018-10-06T08:57:33.907Z,17.29
2018-10-06T09:00:45.789Z,17.63
2018-10-06T09:03:52.713Z,17.88
2018-10-06T09:06:59.698Z,18.34
2018-10-06T09:10:11.202Z,18.63
2018-10-06T09:13:22.053Z,18.82
2018-10-06T09:16:31.180Z,19.12
2018-10-06T09:19:40.096Z,19.39
2018-10-06T09:22:47.536Z,19.61
2018-10-06T09:25:55.049Z,19.78
2018-10-06T09:29:03.364Z,19.92
2018-10-06T09:32:13.200Z,19.76
2018-10-06T09:35:23.190Z,19.85
2018-10-06T09:38:33.323Z,20.37
2018-10-06T09:41:43.032Z,20.62
2018-10-06T09:44:52.644Z,21.06
2018-10-06T09:51:23.271Z,21.38
2018-10-06T09:54:31.126Z,21.36
2018-10-06T09:57:42.498Z,21.47
2018-10-06T10:00:58.172Z,21.58
2018-10-06T10:04:10.246Z,21.80
2018-10-06T10:07:15.249Z,22.01
2018-10-06T10:10:21.996Z,22.19
2018-10-06T10:13:26.979Z,22.40
2018-10-06T10:16:32.212Z,22.59
2018-10-06T10:19:37.222Z,22.67
2018-10-06T10:22:42.342Z,22.81
2018-10-06T10:25:47.304Z,22.96
2018-10-06T10:28:53.558Z,23.10
2018-10-06T10:32:02.871Z,23.07
2018-10-06T10:35:13.358Z,23.09
2018-10-06T10:38:22.885Z,23.01
2018-10-06T10:41:32.964Z,22.61
2018-10-06T10:44:46.516Z,22.48
2018-10-06T10:47:56.601Z,22.41
2018-10-06T10:51:05.209Z,22.33
2018-10-06T10:54:13.342Z,22.38
2018-10-06T10:57:23.519Z,22.26
2018-10-06T11:00:31.451Z,22.26
2018-10-06T11:03:43.434Z,22.29
2018-10-06T11:06:54.505Z,22.31
2018-10-06T11:10:06.864Z,22.30
2018-10-06T11:13:19.022Z,22.12
2018-10-06T11:16:30.043Z,22.27
2018-10-06T11:19:35.058Z,22.73
2018-10-06T11:22:41.370Z,22.89
2018-10-06T11:25:46.799Z,22.96
2018-10-06T11:28:51.851Z,22.90
2018-10-06T11:31:58.246Z,22.99
2018-10-06T11:35:03.250Z,22.98
2018-10-06T11:38:09.075Z,22.89
2018-10-06T11:41:15.114Z,23.23
2018-10-06T11:44:20.844Z,23.23
2018-10-06T11:47:26.617Z,23.24
2018-10-06T11:50:36.496Z,23.03
2018-10-06T11:53:45.340Z,23.15
2018-10-06T11:56:55.017Z,23.41
2018-10-06T12:00:04.401Z,23.45
2018-10-06T12:03:12.854Z,23.65
2018-10-06T12:06:23.375Z,23.26
2018-10-06T12:09:32.602Z,23.34
2018-10-06T12:15:10.891Z,23.18
2018-10-06T12:18:22.223Z,23.19
2018-10-06T12:21:33.762Z,23.27
2018-10-06T12:24:42.927Z,23.51
2018-10-06T12:27:47.925Z,23.69
2018-10-06T12:30:53.186Z,23.85
2018-10-06T12:34:00.067Z,23.99
2018-10-06T12:37:05.380Z,23.78
2018-10-06T12:40:11.372Z,23.87
2018-10-06T12:43:16.454Z,24.08
2018-10-06T12:46:21.721Z,23.98
2018-10-06T12:49:28.054Z,24.07
2018-10-06T12:52:34.165Z,24.37
2018-10-06T12:55:40.884Z,24.69
2018-10-06T12:58:47.998Z,24.89
2018-10-06T13:01:54.145Z,24.80
2018-10-06T13:05:00.021Z,24.69
2018-10-06T13:08:06.498Z,24.20
2018-10-06T13:11:12.762Z,23.75
2018-10-06T13:14:18.714Z,23.66
2018-10-06T13:17:24.629Z,23.86
2018-10-06T13:20:29.699Z,24.02
2018-10-06T13:23:34.891Z,24.04
2018-10-06T13:26:41.560Z,24.00
2018-10-06T13:29:47.565Z,24.01
2018-10-06T13:32:53.748Z,24.13
2018-10-06T13:36:00.189Z,24.12
2018-10-06T13:39:06.941Z,24.25
2018-10-06T13:42:13.274Z,24.25
2018-10-06T13:45:19.929Z,24.28
2018-10-06T13:48:25.883Z,24.12
2018-10-06T13:51:31.739Z,23.94
2018-10-06T13:54:37.601Z,24.05
2018-10-06T13:57:43.677Z,23.97
2018-10-06T14:00:48.810Z,23.87
2018-10-06T14:03:54.799Z,23.81
2018-10-06T14:07:01.454Z,23.82
2018-10-06T14:10:06.478Z,23.70
2018-10-06T14:13:13.455Z,23.41
2018-10-06T14:16:20.591Z,23.43
2018-10-06T14:19:26.613Z,23.47
2018-10-06T14:22:32.870Z,23.53
2018-10-06T14:25:39.142Z,23.43
2018-10-06T14:28:44.927Z,23.48
2018-10-06T14:31:50.846Z,23.39
2018-10-06T14:34:56.709Z,23.47
2018-10-06T14:38:01.743Z,23.52
2018-10-06T14:41:06.800Z,23.48
2018-10-06T14:44:12.573Z,23.49
2018-10-06T14:47:19.402Z,23.44
2018-10-06T14:50:24.822Z,23.42
2018-10-06T14:53:30.764Z,23.42
2018-10-06T14:56:37.300Z,23.33
2018-10-06T14:59:43.274Z,23.33
2018-10-06T15:02:49.137Z,23.28
2018-10-06T15:05:55.772Z,23.33
2018-10-06T15:09:02.639Z,23.34
2018-10-06T15:12:09.547Z,23.33
2018-10-06T15:15:15.487Z,23.25
2018-10-06T15:18:21.486Z,23.23
2018-10-06T15:21:28.227Z,23.23
2018-10-06T15:24:33.598Z,23.15
2018-10-06T15:27:40.945Z,22.97
2018-10-06T15:30:47.346Z,22.84
2018-10-06T15:33:53.923Z,22.80
2018-10-06T15:37:00.772Z,22.70
2018-10-06T15:40:08.597Z,22.60
2018-10-06T15:43:15.572Z,22.57
2018-10-06T15:46:23.066Z,22.54
2018-10-06T15:49:29.868Z,22.52
2018-10-06T15:52:36.066Z,22.35
2018-10-06T15:55:41.955Z,22.28
2018-10-06T15:58:49.583Z,22.20
2018-10-06T16:01:56.578Z,22.09
2018-10-06T16:05:02.462Z,22.06
2018-10-06T16:08:08.777Z,22.02
2018-10-06T16:11:14.602Z,21.94
2018-10-06T16:14:20.887Z,21.82
2018-10-06T16:17:28.296Z,21.68
2018-10-06T16:20:34.246Z,21.57
2018-10-06T16:23:40.276Z,21.38
2018-10-06T16:26:47.483Z,21.17
2018-10-06T16:29:53.930Z,21.02
2018-10-06T16:32:59.915Z,20.80
2018-10-06T16:36:05.851Z,20.53
2018-10-06T16:39:13.361Z,20.30
2018-10-06T16:42:20.334Z,20.16
2018-10-06T16:45:27.318Z,20.08
2018-10-06T16:48:36.136Z,19.93
2018-10-06T16:51:44.109Z,19.86
2018-10-06T16:54:51.090Z,19.76
2018-10-06T16:57:57.365Z,19.62
2018-10-06T17:01:03.304Z,19.46
2018-10-06T17:04:09.579Z,19.29
2018-10-06T17:07:15.451Z,19.12
2018-10-06T17:10:21.591Z,18.96
2018-10-06T17:13:27.757Z,18.79
2018-10-06T17:16:33.893Z,18.67
2018-10-06T17:19:40.764Z,18.53
2018-10-06T17:22:46.609Z,18.39
2018-10-06T17:25:53.471Z,18.24
2018-10-06T17:29:00.820Z,18.12
2018-10-06T17:32:07.471Z,17.99
2018-10-06T17:35:14.228Z,17.80
2018-10-06T17:38:20.511Z,17.69
2018-10-06T17:41:27.440Z,17.55
2018-10-06T17:44:34.557Z,17.46
2018-10-06T17:47:42.592Z,17.39
2018-10-06T17:50:49.118Z,17.32
2018-10-06T17:53:56.431Z,17.20
2018-10-06T17:57:01.656Z,17.16
2018-10-06T18:00:07.858Z,17.10
2018-10-06T18:03:13.015Z,16.98
2018-10-06T18:06:18.930Z,16.95
2018-10-06T18:09:24.021Z,16.91
2018-10-06T18:12:31.081Z,16.80
2018-10-06T18:15:37.106Z,16.76
2018-10-06T18:18:42.187Z,16.73
2018-10-06T18:21:48.023Z,16.69
2018-10-06T18:24:53.928Z,16.68
2018-10-06T18:28:03.013Z,16.66
2018-10-06T18:31:10.980Z,16.56
2018-10-06T18:34:31.786Z,16.48
2018-10-06T18:37:46.342Z,16.39
2018-10-06T18:40:55.071Z,16.30
2018-10-06T18:44:17.684Z,16.26
2018-10-06T18:50:58.716Z,16.00
2018-10-06T18:54:05.589Z,15.98
2018-10-06T18:57:11.653Z,15.93
2018-10-06T19:00:17.704Z,15.90
2018-10-06T19:03:24.898Z,15.85
2018-10-06T19:06:31.983Z,15.82
2018-10-06T19:09:37.935Z,15.75
2018-10-06T19:12:44.882Z,15.69
2018-10-06T19:15:51.643Z,15.61
2018-10-06T19:18:56.906Z,15.55
2018-10-06T19:22:05.019Z,15.50
2018-10-06T19:25:23.714Z,15.44
2018-10-06T19:28:28.896Z,15.34
2018-10-06T19:31:36.458Z,15.27
2018-10-06T19:34:41.548Z,15.21
2018-10-06T19:37:50.102Z,15.13
2018-10-06T19:40:58.670Z,15.09
2018-10-06T19:44:04.719Z,15.00
2018-10-06T19:47:10.831Z,14.88
2018-10-06T19:50:16.832Z,14.83
2018-10-06T19:53:22.974Z,14.80
2018-10-06T19:56:28.727Z,14.69
2018-10-06T19:59:34.438Z,14.69
2018-10-06T20:02:39.492Z,14.65
2018-10-06T20:05:44.476Z,14.63
2018-10-06T20:08:50.981Z,14.56
2018-10-06T20:11:55.985Z,14.53
2018-10-06T20:15:00.953Z,14.51
2018-10-06T20:18:06.950Z,14.47
2018-10-06T20:21:11.965Z,14.43
2018-10-06T20:24:18.049Z,14.38
2018-10-06T20:27:24.781Z,14.30
2018-10-06T20:30:29.953Z,14.23
2018-10-06T20:33:35.721Z,14.19
2018-10-06T20:36:40.743Z,14.12
2018-10-06T20:39:46.650Z,14.08
2018-10-06T20:42:54.003Z,14.01
2018-10-06T20:46:00.192Z,13.97
2018-10-06T20:49:06.349Z,13.95
2018-10-06T20:52:11.410Z,13.92
2018-10-06T20:55:17.176Z,13.88
2018-10-06T20:58:23.344Z,13.79
2018-10-06T21:01:29.876Z,13.70
2018-10-06T21:04:35.514Z,13.65
2018-10-06T21:07:40.761Z,13.62
2018-10-06T21:15:06.433Z,13.37
2018-10-06T21:18:14.342Z,13.31
2018-10-06T21:21:19.690Z,13.29
2018-10-06T21:24:24.808Z,13.23
2018-10-06T21:27:31.642Z,13.23
2018-10-06T21:30:36.892Z,13.16
2018-10-06T21:33:42.051Z,13.11
2018-10-06T21:36:47.129Z,13.09
2018-10-06T21:39:53.290Z,13.03
2018-10-06T21:42:58.508Z,12.96
2018-10-06T21:46:03.702Z,12.90
2018-10-06T21:49:08.842Z,12.79
2018-10-06T21:52:13.866Z,12.77
2018-10-06T21:55:20.621Z,12.68
2018-10-06T21:58:26.292Z,12.57
2018-10-06T22:01:35.601Z,12.54
2018-10-06T22:04:41.632Z,12.54
2018-10-06T22:07:46.802Z,12.54
2018-10-06T22:10:52.977Z,12.53
2018-10-06T22:13:59.119Z,12.43
2018-10-06T22:17:04.187Z,12.41
2018-10-06T22:20:09.494Z,12.40
2018-10-06T22:23:15.106Z,12.36
2018-10-06T22:26:21.686Z,12.33
2018-10-06T22:29:28.031Z,12.29
2018-10-06T22:32:33.061Z,12.26
2018-10-06T22:35:38.086Z,12.20
2018-10-06T22:38:43.843Z,12.18
2018-10-06T22:41:50.258Z,12.09
2018-10-06T22:44:55.967Z,12.08
2018-10-06T22:48:01.152Z,12.03
2018-10-06T22:51:06.414Z,12.00
2018-10-06T22:54:11.539Z,11.95
2018-10-06T22:57:16.606Z,11.91
2018-10-06T23:00:23.290Z,11.88
2018-10-06T23:03:28.487Z,11.82
2018-10-06T23:06:33.516Z,11.78
2018-10-06T23:09:39.645Z,11.75
2018-10-06T23:12:44.644Z,11.70
2018-10-06T23:15:50.797Z,11.68
2018-10-06T23:18:56.562Z,11.65
2018-10-06T23:22:01.594Z,11.65
2018-10-06T23:25:06.606Z,11.62
2018-10-06T23:28:12.519Z,11.59
2018-10-06T23:31:17.529Z,11.56
2018-10-06T23:34:29.343Z,11.53
2018-10-06T23:37:34.364Z,11.44
2018-10-06T23:40:40.346Z,11.41
2018-10-06T23:43:45.356Z,11.38
2018-10-06T23:46:50.445Z,11.36
2018-10-06T23:49:55.613Z,11.34
2018-10-06T23:53:00.606Z,11.31
2018-10-06T23:56:06.560Z,11.30
2018-10-06T23:59:13.425Z,11.26
